Dernières infos :  

11/04/2019  Mise à jour des tableaux d'analyses décadaires : rubrique climatologie
02/04/2019 Mise en ligne de la synthèse climatologique de MARS : 
CLIQUEZ ICI
01/04/2019  Mise à jour des tableaux d'analyses décadaires, mensuelles et annuelles : rubrique climatologie   

Si l'entête du tableau ne s'affiche pas correctement, => actualisez la page (F5 avec Internet Explorer, Chrome...).
Utilisez l'ascenseur sur la droite des lignes du tableau pour faire défiler verticalement les jours du mois.

TABLEAU DES DONNEES COMPLETES NOAA de MARS 2019

DATE TEMPERATURE
sous abri
TEMPARATURE 
au sol
VENT  et  Indice de Refroidissement Eolien  PRECIPITATIONS (en mm/m2)
et Intensité
PRESSION ATMOSPHERIQUE (en hPa) HUMIDITE de l'AIR RADIATIONS SOLAIRES (en W/m2)
Mini Moy. Maxi Mini Moy. Maxi Moyen Rafale I.R.E.
Minii
Précip. jour Cumul mois Intensité Maxi Mini Moy. Maxi Mini Moy. Maxi Pic maxi du jour Total jour
01/03/19 7.3° 9.3° 10.3° 4.4° 8.3° 10° 3.4km/h dir O 25.7km/h dir O 0.2 0.2 1020.3 1021.8 1023.8 74% 80.2% 89% 193 8 286
02/03/19 5.3° 7.3° 9.7° 1.7° 6.5° 10.6° 0.8km/h dir SE 16.1km/h dir ESE 5.4° 2.4 2.6 3.2mm/h 1019.8 1021.1 1022.5 84% 91.7% 95% 246 13 156
03/03/19 3.6° 9.9° 16.3° 0.6° 9.2° 17.2° 5km/h dir SSE 43.5km/h dir SSE 2.9° 0.2 2.8 1009.9 1017.5 1022 55% 75.8% 96% 670 31 548
04/03/19 6.7° 11.5° 15.1° 10.9° 16.7° 12.4km/h dir SSE 54.7km/h dir SE 0.4 3.2 1004.9 1010 1015.1 39% 58.7% 79% 849 25 955
05/03/19 4.6° 9.5° 15.3° 1.7° 8.6° 17.8° 2.4km/h dir S 25.7km/h dir SSE 3.7° 0 3.2 1012.1 1014.7 1016.2 45% 64.4% 83% 766 42 896
06/03/19 7.5° 12.8° 16.9° 12.1° 17.8° 15.8km/h dir SSE 57.9km/h dir SSE 6.5° 0 3.2 997.2 1005 1012 46% 56.1% 64% 452 24 362
07/03/19 8.1° 11.2° 15.5° 7.2° 10.8° 16.1° 10km/h dir S 54.7km/h dir SO 5.3° 13.2 16.4 69.8mm/h 997.2 1007 1013.9 48% 70.6% 92% 733 30 931
08/03/19 7.1° 9.3° 12.7° 6.1° 16.1° 0.6km/h dir SE 17.7km/h dir SSE 7.1° 2 18.4 1.2mm/h 1013.9 1019.2 1023.4 64% 82.6% 94% 791 24 141
09/03/19 8.1° 9.9° 12.1° 6.7° 9.5° 12.2° 6km/h dir SSE 40.2km/h dir SSE 1.6 20 0.8mm/h 1023 1024.5 1025.8 74% 84.6% 94% 329 12 437
10/03/19 9.1° 13° 16.4° 6.7° 12.4° 17.8° 9.5km/h dir SSE 37km/h dir SSE 8.2° 6.4 26.4 69mm/h 1019.8 1021.8 1026.2 57% 76.5% 95% 603 18 382
11/03/19 0.7° 6.2° 9.9° -1.1° 5.4° 12.2° 5.8km/h dir SO 56.3km/h dir ONO -1.7° 3.4 29.8 11mm/h 1025.9 1028.1 1031.5 62% 79.4% 91% 925 34 992
12/03/19 -1.7° 6.8° 13.8° -3.3° 6.4° 15.6° 9.2km/h dir SSE 46.7km/h dir SSE -2.3° 0.4 30.2 1014.1 1022.7 1031.6 35% 67.1% 95% 715 44 387
13/03/19 4.3° 6.8° 9.2° 3.3° 6.7° 12.8° 5km/h dir SSE 37km/h dir O 3.1° 5.6 35.8 10.8mm/h 1018.1 1019.7 1021.6 73% 85.6% 92% 928 29 032
14/03/19 5.2° 6.4° 7.4° 6.1° 7.8° 6.4km/h dir SSE 35.4km/h dir ESE 2.7° 25.6 61.4 12.8mm/h 1016.4 1020.1 1022.7 78% 90.7% 96% 185 7 985
15/03/19 7.2° 9.9° 13° 6.7° 9.8° 14.4° 4km/h dir SSE 19.3km/h dir SO 6.7° 5.2 66.6 2.6mm/h 1018.5 1021.2 1023.7 90% 94.3% 96% 489 13 676
16/03/19 8.7° 12.6° 18.9° 5.6° 12° 20.6° 2.1km/h dir SE 19.3km/h dir S 8.7° 0.2 66.8 1011.5 1018.3 1023.9 49% 76.9% 96% 715 54 498
17/03/19 4.7° 9.9° 17.9° 2.8° 8.8° 21.7° 5.5km/h dir SE 51.5km/h dir ONO 2.9° 1.8 68.6 3.6mm/h 1009 1012.9 1019.5 51% 73.9% 90% 972 29 133
18/03/19 2.6° 6.2° 10.1° 1.1° 5.8° 13.3° 3.1km/h dir O 24.1km/h dir NO 1.6° 0.6 69.2 6.8mm/h 1019 1022.1 1024.2 62% 82.4% 93% 983 30 614
19/03/19 -0.9° 5.6° 11.9° -2.8° 5.2° 15° 7.1km/h dir N 35.4km/h dir N -0.9° 0.2 69.4 1023.4 1025.8 1029.1 54% 77.2% 96% 905 49 179
20/03/19 7.6° 14.1° -0.6° 16.7° 11.7km/h dir N 40.2km/h dir NO -1.8° 0 69.4 1028.4 1029.6 1030.8 38% 63.2% 88% 700 57 724
21/03/19 -1.6° 6.4° 14.3° -3.3° 5.6° 17.8° 1.9km/h dir ONO 16.1km/h dir ONO -1.6° 0 69.4 1028.5 1029.5 1030.7 44% 70.5% 93% 701 57 830
22/03/19 -0.6° 8.9° 19° -2.2° 7.9° 22.8° 1.1km/h dir ONO 12.9km/h dir ONO -0.6° 0 69.4 1026.8 1028.7 1030.3 36% 69.4% 94% 705 58 083
23/03/19 0.8° 10.1° 20° -1.1° 9.2° 22.8° 3.5km/h dir ONO 25.7km/h dir ONO 0.8° 0 69.4 1024.4 1026.4 1028.1 36% 68.4% 93% 705 58 069
24/03/19 0.9° 10.1° 18.5° -1.1° 9.7° 21.7° 4.3km/h dir ONO 20.9km/h dir ONO 0.9° 0 69.4 1022.1 1024 1025.4 50% 73.4% 95% 696 57 131
25/03/19 5.7° 8.8° 13.1° 3.3° 8.5° 16.1° 12.2km/h dir N 45.1km/h dir ONO 2.8° 0 69.4 1023.3 1024 1026.2 48% 68.8% 89% 905 50 743
26/03/19 3.3° 7.9° 12.8° 2.2° 7.7° 15° 16.4km/h dir N 49.9km/h dir N -0.4° 0 69.4 1025.3 1026.8 1027.8 43% 64.2% 87% 728 61 072
27/03/19 1.6° 8.3° 14.6° -0.6° 16.7° 12.9km/h dir NNE 43.5km/h dir N -1.1° 0 69.4 1026 1027.3 1028.6 46% 64% 84% 714 60 351
28/03/19 1.4° 9.1° 15.8° -1.7° 8.4° 18.9° 4.2km/h dir ONO 25.7km/h dir ONO 0.6° 0 69.4 1026.7 1028.1 1029.7 46% 66% 90% 724 60 682
29/03/19 1.7° 10.7° 19.9° -1.1° 9.4° 22.2° 4.2km/h dir SSE 33.8km/h dir SSE 1.7° 0 69.4 1023.9 1026.2 1028.4 36% 63.5% 90% 722 60 119
30/03/19 6.4° 12.9° 19.9° 2.8° 11.8° 23.3° 4.8km/h dir SE 29km/h dir S 6.1° 0 69.4 1019.2 1022.6 1025.5 33% 55.9% 76% 742 61 970
31/03/19 3.5° 12.5° 20.2° 1.1° 11.5° 23.3° 1.9km/h dir O 16.1km/h dir ONO 3.6° 0 69.4 1014.1 1017.2 1020.1 43% 62.1% 85% 737 62 546

RETOUR ACCUEIL


Date de création : 01/04/2019 : 21:11
Catégorie : ANNEE 2019 - MOIS PASSES - MARS 2019
Page lue 37 fois


Réactions à cet article

Personne n'a encore laissé de commentaire.
Soyez donc le premier !